DYW weather

Daly Waters Airport
Daly Waters, Northern Territory, Australia

Public forecast

Using degrees Celsius for public forecast. Weather courtesy of forecast.io.

METAR (pilot weather report)

Closest report is Tindal Airport, 119.8 nm (221.8 km) NNW. Retrieved 2019/03/18 17:30 UTC (28 minutes ago):

YPTN 181730Z AUTO 00000KT 9999 // NCD 25/23 Q1007

TAF (pilot weather forecast)

Closest forecast is Tindal Airport, 119.8 nm (221.8 km) NNW. Retrieved 2019/03/18 12:00 UTC (6 hours ago):

TAF YPTN 181109Z 1812/1912 30006KT CAVOK FM181800 30003KT 9999 SCT010 FM190000 22007KT 9999 SCT030 FM190800 06006KT 9999 SCT030 PROB30 TEMPO 1905/1912 VRB25G40KT 1000 TSRA BKN010 SCT040CB